Time;durP1;ratioP1;P1;durP2;ratioP2;P2;SDS_P1;SDS_P2;PMS_P1;PMS_P2;Temp;Humidity;BMP_temperature;BMP_pressure;BME280_temperature;BME280_humidity;BME280_pressure;Samples;Min_cycle;Max_cycle;Signal;HPM_P1;HPM_P2
2021/01/22 00:02:01;;;;;;;2.27;1.60;;;;;;;;;;10218580;28;20218;-75
2021/01/22 00:07:03;;;;;;;2.77;1.30;;;;;;;;;;10217817;28;20699;-76
2021/01/22 00:12:06;;;;;;;1.67;1.57;;;;;;;;;;10205932;28;20758;-77
2021/01/22 00:17:08;;;;;;;1.40;1.30;;;;;;;;;;10217127;28;20215;-76
2021/01/22 00:22:10;;;;;;;1.40;1.30;;;;;;;;;;10218756;28;20684;-76
2021/01/22 00:27:13;;;;;;;2.17;1.30;;;;;;;;;;10212539;28;20544;-76
2021/01/22 00:32:15;;;;;;;1.90;1.40;;;;;;;;;;10217331;28;20241;-76
2021/01/22 00:37:17;;;;;;;2.40;1.20;;;;;;;;;;10208017;28;20241;-76
2021/01/22 00:42:20;;;;;;;2.77;1.30;;;;;;;;;;10219253;28;20226;-76
2021/01/22 00:47:21;;;;;;;1.50;1.10;;;;;;;;;;10219901;28;20215;-75
2021/01/22 00:52:23;;;;;;;2.10;1.40;;;;;;;;;;10217132;28;20302;-76
2021/01/22 00:57:26;;;;;;;2.37;1.50;;;;;;;;;;10214978;28;20223;-76
2021/01/22 01:02:27;;;;;;;5.03;1.60;;;;;;;;;;10211954;28;20211;-75
2021/01/22 01:07:30;;;;;;;2.40;1.63;;;;;;;;;;10221616;28;20756;-76
2021/01/22 01:12:33;;;;;;;3.30;1.60;;;;;;;;;;10212910;28;20241;-76
2021/01/22 01:17:35;;;;;;;2.43;1.73;;;;;;;;;;10216187;28;20219;-75
2021/01/22 01:22:37;;;;;;;2.13;1.60;;;;;;;;;;10214981;28;20254;-77
2021/01/22 01:27:40;;;;;;;2.47;1.70;;;;;;;;;;10215921;28;20237;-76
2021/01/22 01:32:42;;;;;;;1.90;1.70;;;;;;;;;;10204877;28;20602;-76
2021/01/22 01:37:44;;;;;;;2.57;1.90;;;;;;;;;;10215519;28;20222;-76
2021/01/22 01:42:46;;;;;;;3.17;1.97;;;;;;;;;;10211469;28;20227;-76
2021/01/22 01:47:48;;;;;;;4.23;2.00;;;;;;;;;;10219734;28;20226;-76
2021/01/22 01:52:50;;;;;;;2.53;2.17;;;;;;;;;;10218120;28;20250;-77
2021/01/22 01:57:54;;;;;;;4.47;1.90;;;;;;;;;;10218708;28;20310;-75
2021/01/22 02:02:55;;;;;;;3.27;2.30;;;;;;;;;;10217502;28;20219;-75
2021/01/22 02:07:57;;;;;;;2.63;2.10;;;;;;;;;;10221124;28;20219;-75
2021/01/22 02:13:01;;;;;;;3.07;2.40;;;;;;;;;;10218669;28;20305;-76
2021/01/22 02:18:04;;;;;;;4.47;2.60;;;;;;;;;;10216494;28;20313;-75
2021/01/22 02:23:06;;;;;;;4.03;2.40;;;;;;;;;;10223205;28;20233;-76
2021/01/22 02:28:11;;;;;;;2.87;2.23;;;;;;;;;;10222374;28;20222;-76
2021/01/22 02:33:15;;;;;;;3.13;1.93;;;;;;;;;;10220760;28;20605;-75
2021/01/22 02:38:17;;;;;;;2.80;2.10;;;;;;;;;;10215492;28;20218;-76
2021/01/22 02:43:20;;;;;;;3.53;2.10;;;;;;;;;;10223692;28;20673;-76
2021/01/22 02:48:22;;;;;;;2.20;1.50;;;;;;;;;;10211051;28;20222;-76
2021/01/22 02:53:24;;;;;;;2.37;1.57;;;;;;;;;;10218161;28;20745;-76
2021/01/22 02:58:33;;;;;;;1.63;1.20;;;;;;;;;;10212915;28;20942;-76
2021/01/22 03:03:40;;;;;;;1.83;1.13;;;;;;;;;;10217335;28;20223;-76
2021/01/22 03:08:44;;;;;;;1.33;0.87;;;;;;;;;;10213443;28;20226;-76
2021/01/22 03:13:48;;;;;;;1.77;1.07;;;;;;;;;;10219568;28;20235;-75
2021/01/22 03:18:57;;;;;;;2.67;0.90;;;;;;;;;;10216830;28;20217;-76
2021/01/22 03:23:59;;;;;;;2.00;0.90;;;;;;;;;;10223419;28;20554;-75
2021/01/22 03:29:02;;;;;;;3.90;1.10;;;;;;;;;;10216693;28;20219;-75
2021/01/22 03:34:04;;;;;;;2.17;1.00;;;;;;;;;;10210840;28;20247;-76
2021/01/22 03:39:06;;;;;;;2.03;1.07;;;;;;;;;;10222944;28;20223;-75
2021/01/22 03:44:09;;;;;;;2.23;1.00;;;;;;;;;;10224014;28;21322;-76
2021/01/22 03:49:11;;;;;;;2.10;1.17;;;;;;;;;;10213535;28;20214;-76
2021/01/22 03:54:13;;;;;;;4.17;1.10;;;;;;;;;;10221150;28;20245;-76
2021/01/22 03:59:15;;;;;;;2.83;1.10;;;;;;;;;;10210158;28;20215;-76
2021/01/22 04:04:17;;;;;;;2.23;1.10;;;;;;;;;;10214485;28;20219;-76
2021/01/22 04:09:34;;;;;;;3.93;1.20;;;;;;;;;;10211868;28;20242;-77
2021/01/22 04:14:36;;;;;;;4.77;1.20;;;;;;;;;;10211141;28;20216;-76
2021/01/22 04:19:38;;;;;;;6.03;1.20;;;;;;;;;;10215756;28;20233;-76
2021/01/22 04:24:40;;;;;;;3.70;1.20;;;;;;;;;;10212276;28;20254;-76
2021/01/22 04:29:43;;;;;;;5.20;1.40;;;;;;;;;;10216338;28;20223;-75
2021/01/22 04:34:45;;;;;;;4.03;1.33;;;;;;;;;;10210261;28;20227;-75
2021/01/22 04:39:47;;;;;;;2.70;1.50;;;;;;;;;;10213864;28;20223;-75
2021/01/22 04:44:50;;;;;;;4.03;1.70;;;;;;;;;;10212363;28;20226;-75
2021/01/22 04:49:52;;;;;;;4.07;1.90;;;;;;;;;;10213578;28;20239;-75
2021/01/22 04:54:54;;;;;;;3.60;1.87;;;;;;;;;;10209882;28;20565;-75
2021/01/22 04:59:57;;;;;;;5.90;2.00;;;;;;;;;;10213285;28;20223;-76
2021/01/22 05:04:59;;;;;;;4.77;1.90;;;;;;;;;;10211619;28;20289;-73
2021/01/22 05:10:02;;;;;;;5.67;2.07;;;;;;;;;;10216975;28;20341;-75
2021/01/22 05:15:13;;;;;;;5.73;1.70;;;;;;;;;;10207657;28;20287;-75
2021/01/22 05:20:25;;;;;;;6.50;2.10;;;;;;;;;;10225142;28;20439;-73
2021/01/22 05:25:27;;;;;;;5.00;1.90;;;;;;;;;;10223227;28;20764;-73
2021/01/22 05:30:30;;;;;;;5.37;2.40;;;;;;;;;;10217345;28;20241;-74
2021/01/22 05:35:33;;;;;;;6.83;2.40;;;;;;;;;;10221191;28;20246;-73
2021/01/22 05:40:35;;;;;;;6.30;2.43;;;;;;;;;;10218971;28;20907;-73
2021/01/22 05:45:39;;;;;;;8.40;2.73;;;;;;;;;;10213387;28;20230;-74
2021/01/22 05:50:44;;;;;;;6.67;2.93;;;;;;;;;;10217028;28;20250;-74
2021/01/22 05:55:46;;;;;;;8.07;2.87;;;;;;;;;;10215575;28;20293;-75
2021/01/22 06:01:02;;;;;;;7.03;3.23;;;;;;;;;;10218104;28;20223;-75
2021/01/22 06:06:05;;;;;;;8.27;3.70;;;;;;;;;;10220976;28;20215;-76
2021/01/22 06:11:10;;;;;;;6.67;3.50;;;;;;;;;;10219655;28;20251;-90
2021/01/22 06:16:15;;;;;;;7.47;3.40;;;;;;;;;;10216025;28;20223;-78
2021/01/22 06:21:20;;;;;;;8.47;3.47;;;;;;;;;;10217055;28;20323;-78
2021/01/22 06:26:22;;;;;;;7.33;3.40;;;;;;;;;;10219166;28;20230;-77
2021/01/22 06:31:25;;;;;;;8.33;3.57;;;;;;;;;;10218390;28;20325;-76
2021/01/22 06:36:28;;;;;;;8.30;3.47;;;;;;;;;;10219573;28;20686;-77
2021/01/22 06:41:30;;;;;;;7.23;3.60;;;;;;;;;;10213773;28;20215;-79
2021/01/22 06:46:33;;;;;;;13.40;4.13;;;;;;;;;;10216145;28;20222;-81
2021/01/22 06:51:36;;;;;;;9.27;3.73;;;;;;;;;;10212633;28;20334;-75
2021/01/22 06:57:08;;;;;;;10.43;3.93;;;;;;;;;;10213840;28;20223;-75
2021/01/22 07:02:28;;;;;;;11.33;3.90;;;;;;;;;;10211112;28;20231;-85
2021/01/22 07:07:45;;;;;;;10.90;3.87;;;;;;;;;;10208173;28;20215;-75
2021/01/22 07:12:47;;;;;;;13.63;4.27;;;;;;;;;;10215855;28;20746;-91
2021/01/22 07:17:49;;;;;;;9.33;3.50;;;;;;;;;;10214213;28;20211;-90
2021/01/22 07:22:53;;;;;;;8.87;3.50;;;;;;;;;;10209178;28;20215;-77
2021/01/22 07:27:55;;;;;;;7.80;3.73;;;;;;;;;;10213078;28;20227;-81
2021/01/22 07:32:57;;;;;;;9.60;3.60;;;;;;;;;;10208849;28;20247;-77
2021/01/22 07:38:00;;;;;;;13.57;4.00;;;;;;;;;;10220976;28;20230;-78
2021/01/22 07:43:12;;;;;;;7.37;3.43;;;;;;;;;;10217500;28;20698;-77
2021/01/22 07:48:27;;;;;;;10.33;3.53;;;;;;;;;;10214056;28;20339;-78
2021/01/22 07:53:30;;;;;;;11.73;3.93;;;;;;;;;;10223052;28;20688;-76
2021/01/22 07:58:37;;;;;;;10.00;3.30;;;;;;;;;;10212801;28;20207;-76
2021/01/22 08:03:48;;;;;;;8.43;3.10;;;;;;;;;;10224567;28;20226;-76
2021/01/22 08:09:04;;;;;;;8.67;3.33;;;;;;;;;;10217882;28;20221;-77
2021/01/22 08:14:08;;;;;;;11.70;3.00;;;;;;;;;;10215667;28;20239;-76
2021/01/22 08:19:10;;;;;;;8.13;2.90;;;;;;;;;;10216205;28;20238;-77
2021/01/22 08:24:14;;;;;;;8.43;2.60;;;;;;;;;;10218334;28;20472;-76
2021/01/22 08:29:16;;;;;;;8.47;3.10;;;;;;;;;;10210519;28;20227;-76
2021/01/22 08:34:18;;;;;;;12.13;2.83;;;;;;;;;;10219106;28;20610;-77
2021/01/22 08:39:25;;;;;;;8.27;2.97;;;;;;;;;;10214342;28;20806;-75
2021/01/22 08:44:27;;;;;;;6.77;2.63;;;;;;;;;;10207387;28;20380;-77
2021/01/22 08:49:29;;;;;;;8.97;3.03;;;;;;;;;;10215800;28;20210;-77
2021/01/22 08:54:38;;;;;;;9.70;3.00;;;;;;;;;;10214663;28;20798;-76
2021/01/22 08:59:46;;;;;;;11.47;3.00;;;;;;;;;;10207552;28;20353;-76
2021/01/22 09:05:02;;;;;;;8.03;3.00;;;;;;;;;;10214096;28;20684;-76
2021/01/22 09:10:06;;;;;;;10.37;3.00;;;;;;;;;;10209019;28;20350;-76
2021/01/22 09:15:14;;;;;;;8.30;2.63;;;;;;;;;;10214571;28;20214;-77
2021/01/22 09:20:17;;;;;;;8.93;2.90;;;;;;;;;;10213711;28;20440;-75
2021/01/22 09:25:21;;;;;;;9.67;3.53;;;;;;;;;;10211256;28;20216;-77
2021/01/22 09:30:23;;;;;;;9.03;2.77;;;;;;;;;;10214202;28;20703;-77
2021/01/22 09:35:26;;;;;;;8.47;2.90;;;;;;;;;;10211048;28;20269;-77
2021/01/22 09:40:29;;;;;;;11.23;3.10;;;;;;;;;;10217217;28;20688;-77
2021/01/22 09:45:31;;;;;;;8.43;3.00;;;;;;;;;;10206400;28;20569;-76
2021/01/22 09:50:33;;;;;;;8.27;3.53;;;;;;;;;;10211679;28;20700;-76
2021/01/22 09:55:36;;;;;;;9.87;3.00;;;;;;;;;;10212222;28;20210;-75
2021/01/22 10:00:38;;;;;;;6.90;2.90;;;;;;;;;;10214251;28;20227;-76
2021/01/22 10:05:41;;;;;;;9.70;3.00;;;;;;;;;;10220242;28;20720;-76
2021/01/22 10:10:44;;;;;;;8.47;2.73;;;;;;;;;;10216013;28;20242;-76
2021/01/22 10:15:47;;;;;;;10.83;3.27;;;;;;;;;;10220304;28;20227;-76
2021/01/22 10:20:49;;;;;;;8.93;3.10;;;;;;;;;;10219050;28;20594;-77
2021/01/22 10:25:52;;;;;;;9.87;3.10;;;;;;;;;;10217053;28;20211;-76
2021/01/22 10:30:54;;;;;;;7.37;3.13;;;;;;;;;;10216803;28;20611;-76
2021/01/22 10:35:56;;;;;;;7.80;3.00;;;;;;;;;;10219237;28;20234;-76
2021/01/22 10:40:59;;;;;;;9.83;3.47;;;;;;;;;;10219688;28;20683;-76
2021/01/22 10:46:01;;;;;;;9.87;3.30;;;;;;;;;;10209443;28;20243;-76
2021/01/22 10:51:04;;;;;;;11.13;3.03;;;;;;;;;;10221884;28;20239;-76
2021/01/22 10:56:07;;;;;;;7.53;2.70;;;;;;;;;;10216014;28;20230;-77
2021/01/22 11:01:09;;;;;;;10.53;2.90;;;;;;;;;;10219105;28;20230;-76
2021/01/22 11:06:11;;;;;;;9.30;2.60;;;;;;;;;;10221733;28;20603;-77
2021/01/22 11:11:14;;;;;;;8.53;2.60;;;;;;;;;;10221546;28;20237;-77
2021/01/22 11:16:16;;;;;;;11.03;2.57;;;;;;;;;;10220868;28;20555;-76
2021/01/22 11:21:18;;;;;;;8.33;2.80;;;;;;;;;;10217912;28;20218;-77
2021/01/22 11:26:20;;;;;;;9.77;2.93;;;;;;;;;;10223050;28;20615;-76
2021/01/22 11:31:22;;;;;;;7.50;2.70;;;;;;;;;;10211849;28;20332;-76
2021/01/22 11:36:24;;;;;;;10.50;2.73;;;;;;;;;;10218740;28;20245;-77
2021/01/22 11:41:27;;;;;;;9.10;2.70;;;;;;;;;;10213571;28;20211;-76
2021/01/22 11:46:29;;;;;;;10.10;2.83;;;;;;;;;;10218016;28;20214;-76
2021/01/22 11:51:31;;;;;;;9.07;3.00;;;;;;;;;;10222965;28;20234;-76
2021/01/22 11:56:33;;;;;;;18.17;3.07;;;;;;;;;;10224097;28;20227;-76
2021/01/22 12:01:36;;;;;;;7.87;2.43;;;;;;;;;;10216670;28;20234;-76
2021/01/22 12:06:39;;;;;;;9.63;2.60;;;;;;;;;;10223833;28;20226;-76
2021/01/22 12:11:41;;;;;;;11.70;3.07;;;;;;;;;;10212450;28;20246;-77
2021/01/22 12:16:44;;;;;;;7.63;2.50;;;;;;;;;;10209736;28;20254;-77
2021/01/22 12:21:46;;;;;;;10.47;3.03;;;;;;;;;;10211921;28;20227;-74
2021/01/22 12:26:49;;;;;;;9.83;2.80;;;;;;;;;;10218931;28;20219;-75
2021/01/22 12:31:51;;;;;;;11.83;2.90;;;;;;;;;;10214655;28;20681;-76
2021/01/22 12:36:53;;;;;;;8.93;3.10;;;;;;;;;;10217276;28;20235;-76
2021/01/22 12:41:56;;;;;;;6.50;2.47;;;;;;;;;;10216421;28;20218;-76
2021/01/22 12:46:58;;;;;;;12.43;3.20;;;;;;;;;;10217568;28;20223;-75
2021/01/22 12:52:00;;;;;;;7.03;2.63;;;;;;;;;;10214975;28;20278;-75
2021/01/22 12:57:03;;;;;;;11.20;2.90;;;;;;;;;;10207954;28;20219;-76
2021/01/22 13:02:05;;;;;;;9.50;3.03;;;;;;;;;;10212248;28;20234;-76
2021/01/22 13:07:11;;;;;;;9.80;2.97;;;;;;;;;;10212893;28;20222;-76
2021/01/22 13:12:15;;;;;;;8.73;2.80;;;;;;;;;;10208749;28;20250;-76
2021/01/22 13:17:17;;;;;;;7.20;2.60;;;;;;;;;;10213012;28;20246;-77
2021/01/22 13:22:19;;;;;;;9.93;2.67;;;;;;;;;;10211846;28;20219;-76
2021/01/22 13:27:22;;;;;;;8.00;2.33;;;;;;;;;;10208721;28;20215;-76
2021/01/22 13:32:25;;;;;;;9.63;2.60;;;;;;;;;;10216748;28;20242;-76
2021/01/22 13:37:27;;;;;;;10.23;2.83;;;;;;;;;;10226292;28;20230;-77
2021/01/22 13:42:30;;;;;;;9.80;2.47;;;;;;;;;;10225811;28;20229;-77
2021/01/22 13:47:33;;;;;;;12.33;2.60;;;;;;;;;;10224646;28;20744;-76
2021/01/22 13:52:35;;;;;;;12.40;3.00;;;;;;;;;;10232186;28;20239;-77
2021/01/22 13:57:39;;;;;;;14.60;2.93;;;;;;;;;;10222687;28;20234;-77
2021/01/22 14:02:41;;;;;;;9.30;2.27;;;;;;;;;;10216823;28;20219;-76
2021/01/22 14:07:43;;;;;;;8.77;2.43;;;;;;;;;;10220276;28;20218;-77
2021/01/22 14:12:46;;;;;;;9.43;2.83;;;;;;;;;;10219216;28;20254;-77
2021/01/22 14:17:47;;;;;;;11.13;3.07;;;;;;;;;;10222311;28;20600;-77
2021/01/22 14:22:49;;;;;;;10.40;2.60;;;;;;;;;;10225896;28;20249;-77
2021/01/22 14:27:54;;;;;;;10.50;2.47;;;;;;;;;;10224873;28;20211;-75
2021/01/22 14:32:56;;;;;;;10.07;2.40;;;;;;;;;;10214626;28;20242;-76
2021/01/22 14:37:58;;;;;;;11.00;2.57;;;;;;;;;;10223764;28;20222;-75
2021/01/22 14:43:01;;;;;;;11.40;2.37;;;;;;;;;;10218011;28;20824;-76
2021/01/22 14:48:03;;;;;;;10.80;3.07;;;;;;;;;;10221024;28;20246;-75
2021/01/22 14:53:06;;;;;;;9.13;2.50;;;;;;;;;;10218774;28;20472;-75
2021/01/22 14:58:11;;;;;;;10.07;2.87;;;;;;;;;;10218038;28;20211;-76
2021/01/22 15:03:13;;;;;;;12.03;2.40;;;;;;;;;;10220831;28;20591;-76
2021/01/22 15:08:15;;;;;;;14.63;2.50;;;;;;;;;;10217025;28;20229;-75
2021/01/22 15:13:18;;;;;;;8.23;2.60;;;;;;;;;;10227590;28;20242;-75
2021/01/22 15:18:20;;;;;;;9.43;2.37;;;;;;;;;;10216176;28;20211;-76
2021/01/22 15:23:22;;;;;;;11.10;2.90;;;;;;;;;;10221050;28;20214;-76
2021/01/22 15:28:25;;;;;;;7.50;2.40;;;;;;;;;;10211669;28;20641;-76
2021/01/22 15:33:27;;;;;;;8.93;2.40;;;;;;;;;;10214689;28;20661;-76
2021/01/22 15:38:29;;;;;;;8.37;2.30;;;;;;;;;;10218946;28;20219;-76
2021/01/22 15:43:32;;;;;;;8.50;2.40;;;;;;;;;;10204149;28;20218;-76
2021/01/22 15:48:34;;;;;;;9.80;2.70;;;;;;;;;;10217212;28;20523;-76
2021/01/22 15:53:39;;;;;;;7.63;2.60;;;;;;;;;;10209278;28;20291;-76
2021/01/22 15:58:42;;;;;;;12.73;2.80;;;;;;;;;;10206837;28;20223;-76
2021/01/22 16:03:44;;;;;;;8.50;2.90;;;;;;;;;;10218490;28;20206;-76
2021/01/22 16:08:47;;;;;;;8.70;2.90;;;;;;;;;;10207035;28;20474;-75
2021/01/22 16:13:50;;;;;;;7.87;2.73;;;;;;;;;;10213012;28;20249;-75
2021/01/22 16:18:52;;;;;;;10.17;3.17;;;;;;;;;;10210953;28;20222;-75
2021/01/22 16:23:54;;;;;;;12.07;3.17;;;;;;;;;;10215335;28;20233;-77
2021/01/22 16:28:57;;;;;;;11.10;2.93;;;;;;;;;;10213489;28;20358;-77
2021/01/22 16:33:59;;;;;;;13.37;3.20;;;;;;;;;;10204897;28;20247;-76
2021/01/22 16:39:01;;;;;;;9.37;3.10;;;;;;;;;;10224838;28;20219;-77
2021/01/22 16:44:07;;;;;;;10.83;3.23;;;;;;;;;;10208734;28;20673;-77
2021/01/22 16:49:10;;;;;;;11.83;3.37;;;;;;;;;;10209604;28;20211;-77
2021/01/22 16:54:12;;;;;;;12.30;3.33;;;;;;;;;;10211877;28;20767;-76
2021/01/22 16:59:14;;;;;;;13.97;3.50;;;;;;;;;;10214789;28;20230;-77
2021/01/22 17:04:17;;;;;;;14.93;3.50;;;;;;;;;;10214945;28;20217;-77
2021/01/22 17:09:19;;;;;;;13.73;3.70;;;;;;;;;;10209655;28;20607;-75
2021/01/22 17:14:23;;;;;;;15.60;4.47;;;;;;;;;;10222628;28;20235;-76
2021/01/22 17:19:25;;;;;;;15.60;4.40;;;;;;;;;;10213228;28;20214;-75
2021/01/22 17:24:27;;;;;;;10.83;4.30;;;;;;;;;;10207219;28;20600;-76
2021/01/22 17:29:29;;;;;;;12.63;4.30;;;;;;;;;;10216334;28;20245;-77
2021/01/22 17:34:31;;;;;;;16.63;4.40;;;;;;;;;;10208993;28;20727;-75
2021/01/22 17:39:33;;;;;;;19.70;5.03;;;;;;;;;;10218624;28;20219;-76
2021/01/22 17:44:36;;;;;;;16.50;5.10;;;;;;;;;;10210725;28;20229;-76
2021/01/22 17:49:40;;;;;;;13.50;5.30;;;;;;;;;;10218395;28;20223;-76
2021/01/22 17:54:43;;;;;;;15.93;5.27;;;;;;;;;;10211488;28;20250;-76
2021/01/22 17:59:46;;;;;;;17.97;6.50;;;;;;;;;;10211146;28;20233;-76
2021/01/22 18:04:48;;;;;;;13.03;6.13;;;;;;;;;;10211202;28;20589;-76
2021/01/22 18:09:50;;;;;;;16.53;6.03;;;;;;;;;;10215898;28;20219;-78
2021/01/22 18:14:52;;;;;;;15.43;5.33;;;;;;;;;;10206695;28;20251;-76
2021/01/22 18:19:54;;;;;;;12.03;4.97;;;;;;;;;;10214184;28;20218;-76
2021/01/22 18:25:00;;;;;;;12.87;4.90;;;;;;;;;;10217355;28;20219;-75
2021/01/22 18:30:04;;;;;;;13.00;4.80;;;;;;;;;;10217963;28;20219;-75
2021/01/22 18:35:08;;;;;;;11.40;4.80;;;;;;;;;;10218282;28;20243;-75
2021/01/22 18:40:11;;;;;;;14.10;5.87;;;;;;;;;;10217128;28;20219;-75
2021/01/22 18:45:15;;;;;;;13.60;6.30;;;;;;;;;;10231566;28;20218;-74
2021/01/22 18:50:17;;;;;;;19.03;6.20;;;;;;;;;;10214312;28;20222;-76
2021/01/22 18:55:18;;;;;;;14.97;6.20;;;;;;;;;;10221395;28;20246;-76
2021/01/22 19:00:22;;;;;;;14.37;6.10;;;;;;;;;;10214915;28;20677;-76
2021/01/22 19:05:24;;;;;;;14.33;6.07;;;;;;;;;;10221437;28;20214;-76
2021/01/22 19:10:27;;;;;;;11.17;5.87;;;;;;;;;;10213221;28;20219;-76
2021/01/22 19:15:33;;;;;;;15.63;5.70;;;;;;;;;;10217411;28;20735;-76
2021/01/22 19:20:35;;;;;;;16.43;6.07;;;;;;;;;;10217265;28;20235;-76
2021/01/22 19:25:40;;;;;;;16.37;6.20;;;;;;;;;;10216333;28;20215;-76
2021/01/22 19:30:45;;;;;;;15.23;5.93;;;;;;;;;;10224169;28;20317;-77
2021/01/22 19:35:47;;;;;;;18.43;6.30;;;;;;;;;;10214683;28;20750;-76
2021/01/22 19:40:51;;;;;;;12.67;6.30;;;;;;;;;;10216996;28;20203;-76
2021/01/22 19:45:59;;;;;;;16.13;6.20;;;;;;;;;;10212191;28;20832;-76
2021/01/22 19:51:01;;;;;;;15.30;6.40;;;;;;;;;;10216886;28;20409;-76
2021/01/22 19:56:10;;;;;;;18.50;6.20;;;;;;;;;;10214555;28;20579;-76
2021/01/22 20:01:14;;;;;;;15.47;6.60;;;;;;;;;;10215247;28;20618;-76
2021/01/22 20:06:16;;;;;;;17.50;5.83;;;;;;;;;;10225142;28;20293;-77
2021/01/22 20:11:21;;;;;;;17.70;6.27;;;;;;;;;;10216377;28;20582;-77
2021/01/22 20:16:25;;;;;;;16.67;6.50;;;;;;;;;;10220643;28;20256;-76
2021/01/22 20:21:29;;;;;;;15.67;6.67;;;;;;;;;;10211353;28;20211;-76
2021/01/22 20:26:30;;;;;;;13.60;6.20;;;;;;;;;;10216013;28;20226;-76
2021/01/22 20:31:33;;;;;;;14.13;5.60;;;;;;;;;;10210578;28;20213;-76
2021/01/22 20:36:35;;;;;;;12.87;5.80;;;;;;;;;;10220803;28;20246;-76
2021/01/22 20:41:37;;;;;;;16.90;5.80;;;;;;;;;;10205829;28;20223;-76
2021/01/22 20:46:40;;;;;;;15.87;6.17;;;;;;;;;;10202067;28;20227;-75
2021/01/22 20:51:55;;;;;;;13.80;6.20;;;;;;;;;;10218830;28;20242;-76
2021/01/22 20:56:57;;;;;;;14.77;6.20;;;;;;;;;;10213588;28;20254;-74
2021/01/22 21:02:00;;;;;;;15.50;6.13;;;;;;;;;;10219677;28;20217;-75
2021/01/22 21:07:03;;;;;;;13.97;6.50;;;;;;;;;;10203787;28;20247;-75
2021/01/22 21:12:06;;;;;;;17.37;6.23;;;;;;;;;;10208789;28;20274;-75
2021/01/22 21:17:09;;;;;;;15.50;6.30;;;;;;;;;;10214852;28;20222;-76
2021/01/22 21:22:12;;;;;;;15.43;6.20;;;;;;;;;;10213813;28;20218;-75
2021/01/22 21:27:14;;;;;;;11.10;6.13;;;;;;;;;;10212866;28;20633;-75
2021/01/22 21:32:17;;;;;;;15.47;7.17;;;;;;;;;;10208735;28;20239;-78
2021/01/22 21:37:19;;;;;;;19.20;7.70;;;;;;;;;;10216341;28;20277;-76
2021/01/22 21:42:21;;;;;;;12.67;6.60;;;;;;;;;;10202971;28;20229;-76
2021/01/22 21:47:24;;;;;;;11.63;6.67;;;;;;;;;;10213597;28;20215;-76
2021/01/22 21:52:26;;;;;;;15.23;6.63;;;;;;;;;;10217911;28;20360;-76
2021/01/22 21:57:28;;;;;;;14.80;6.70;;;;;;;;;;10223454;28;20237;-75
2021/01/22 22:02:31;;;;;;;17.23;6.17;;;;;;;;;;10221651;28;20221;-76
2021/01/22 22:07:33;;;;;;;20.53;6.83;;;;;;;;;;10225210;28;20293;-77
2021/01/22 22:12:35;;;;;;;17.73;6.70;;;;;;;;;;10217690;28;20733;-77
2021/01/22 22:17:38;;;;;;;17.07;7.00;;;;;;;;;;10219490;28;20218;-76
2021/01/22 22:22:40;;;;;;;15.20;6.87;;;;;;;;;;10222712;28;20676;-76
2021/01/22 22:27:42;;;;;;;13.07;6.60;;;;;;;;;;10226949;28;20215;-76
2021/01/22 22:32:45;;;;;;;16.00;7.00;;;;;;;;;;10218354;28;20273;-77
2021/01/22 22:37:47;;;;;;;15.43;6.73;;;;;;;;;;10206581;28;20215;-77
2021/01/22 22:42:49;;;;;;;20.47;6.80;;;;;;;;;;10204546;28;20658;-76
2021/01/22 22:47:51;;;;;;;14.90;6.67;;;;;;;;;;10205702;28;20285;-76
2021/01/22 22:52:54;;;;;;;17.70;7.73;;;;;;;;;;10211417;28;20251;-75
2021/01/22 22:57:56;;;;;;;18.47;7.00;;;;;;;;;;10211294;28;20210;-76
2021/01/22 23:02:59;;;;;;;15.73;6.97;;;;;;;;;;10208217;28;20732;-76
2021/01/22 23:08:00;;;;;;;17.53;6.70;;;;;;;;;;10208144;28;20227;-75
2021/01/22 23:13:04;;;;;;;16.70;6.43;;;;;;;;;;10205282;28;20246;-75
2021/01/22 23:18:07;;;;;;;13.20;6.67;;;;;;;;;;10205205;28;20227;-75
2021/01/22 23:23:10;;;;;;;17.77;6.27;;;;;;;;;;10209625;28;20640;-75
2021/01/22 23:28:12;;;;;;;14.33;6.67;;;;;;;;;;10209927;28;20226;-75
2021/01/22 23:33:15;;;;;;;13.67;7.17;;;;;;;;;;10206111;28;20243;-75
2021/01/22 23:38:17;;;;;;;12.17;6.10;;;;;;;;;;10204180;28;20219;-75
2021/01/22 23:43:18;;;;;;;16.87;5.90;;;;;;;;;;10205468;28;20654;-76
2021/01/22 23:48:21;;;;;;;18.43;6.67;;;;;;;;;;10198853;28;20597;-76
2021/01/22 23:53:23;;;;;;;15.13;6.67;;;;;;;;;;10210629;28;20241;-78
2021/01/22 23:58:25;;;;;;;14.60;6.30;;;;;;;;;;10219800;28;20226;-77
